ESSBESSD

Guest
Details From ESSB - Bromma
To ESSD - Borlange
Flight Number -
Tags Routegen Generated
Created
Modified
Stats Distance 96 nm / 178 km
Max Altitude 200 ft / 61 m
Waypoints 5
Social Downloads 0
Likes 0
Share

Download

Looking for another format? Having issues loading an existing format? Contact us
Advertisement - Login to hide

Notes

Departing runway 30 ESSB. Arriving runway 13 ESSD.

Route

ESSB +59.40_+017.81 +59.80_+016.94 +60.37_+015.64 ESSD

ID Type Via Altitude (ft/m) Position (lat/lon) Dist (leg/tot) Name
O ESSB APT - 200 / 61 59.35867 / 17.92964 - / 0 nm
+59.40_+017.81 LATLON - 200 / 61 59.40021 / 17.81330 4 / 4 nm
+59.80_+016.94 LATLON - 200 / 61 59.79912 / 16.93582 35 / 40 nm
+60.37_+015.64 LATLON - 200 / 61 60.36617 / 15.63876 51 / 91 nm
O ESSD APT - 0 / 0 60.41510 / 15.53084 4 / 96 nm

Altitude Profile

Advertisement - Login to hide

ESSB

Details ICAO ESSB (BMA)
Name Bromma
Region Sweden
Timezone Europe/Stockholm (UTC+2.0)
Stats Elevation 44 ft / 13 m (AMSL)
Location 59.354400° 17.942200°
Runways 1
Magnetic Variation 6.491° E

METAR

ESSB 201120Z 25009KT 9999 BKN023 15/11 Q1019

Decode

TAF

Not found

Departure Runways

ID Width Length Bearing (true/mag) Surface Threshold Overrun Markings Lighting
12 148 ft / 45 m 6,181 ft / 1,884 m 125.05° / 118.56° ASPHALT 361 ft / 110 m 210 ft / 64 m PREC-APP EDGE THRESHOLD CALVERT REIL-OMNI
30 148 ft / 45 m 6,181 ft / 1,884 m 305.07° / 298.58° ASPHALT 361 ft / 110 m 207 ft / 63 m PREC-APP EDGE THRESHOLD CALVERT-ILS REIL-OMNI

ESSD

Details ICAO ESSD (BLE)
Name Borlange
Region Sweden
Timezone Europe/Stockholm (UTC+2.0)
Stats Elevation 502 ft / 153 m (AMSL)
Location 60.422100° 15.515400°
Runways 1
Magnetic Variation 5.710° E

METAR

ESSD 201120Z AUTO 25008KT 9999 FEW200/// 13/08 Q1017

Decode

TAF

Not found

Destination Runways

ID Width Length Bearing (true/mag) Surface Threshold Overrun Markings Lighting
14 148 ft / 45 m 7,561 ft / 2,305 m 132.46° / 126.75° ASPHALT 0 ft / 0 m 210 ft / 64 m APP EDGE THRESHOLD
32 148 ft / 45 m 7,561 ft / 2,305 m 312.49° / 306.78° ASPHALT 0 ft / 0 m 112 ft / 34 m PREC-APP EDGE THRESHOLD MALS

Approach Navaids

Runway Type Ident Frequency Range Bearing (true/mag) Slope Elevation
32 LOC-ILS SD 109.50 MHz 18 nm / 33 km 312.44° / 306.73 ° - 503 ft / 153 m (AMSL)
32 GS SD 109.50 MHz 10 nm / 19 km 312.95° / 307.24 ° 3.00° 503 ft / 153 m (AMSL)
32 OM OM - - 312.48° / 306.77 ° - 503 ft / 153 m (AMSL)
32 MM MM - - 312.48° / 306.77 ° - 503 ft / 153 m (AMSL)

Popular Alternatives